National Weather Service Raw Text Product

Displaying AFOS PIL: TAFMCW Received: 2017-11-15 00:34 UTC


815 
FTUS43 KDMX 150034 AAA
TAFMCW
TAF AMD
KMCW 150034Z 1501/1524 16011KT 2SM -RA BR OVC002
      TEMPO 1501/1505 1SM BR
     FM150700 24009KT 3SM BR VCSH OVC003
     FM150900 28009KT P6SM OVC004
     FM151100 30014G21KT P6SM SCT004 BKN014
     FM151400 31017G24KT P6SM BKN020=